KRE156 SKBO-SKUC
Flight info
| Callsign | KRE156 |
|---|---|
| Flight time | 0h 41m |
| Altitude | 27000 |
| Route | ZIP4B AKROB W20 MAVDA DCT TME |
| Aircraft | B722/M-SDFGHRWY/C |
Departure
| Time | 2026-04-24 13:21 |
|---|---|
| Airport | El Dorado International Airport (SKBO) |
Arrival
| Time | 2026-04-24 14:03 |
|---|---|
| Airport | Santiago Perez Airport (SKUC) |
| Time | Latitude | Longitude | Altitude | Speed | Heading |
|---|---|---|---|---|---|
| 2026-04-24 13:12 | 4.69371 | -74.14196 | 8346 ft | 0 kts | 38° |
| 2026-04-24 13:14 | 4.69366 | -74.14200 | 8373 ft | 4 kts | 38° |
| 2026-04-24 13:14 | 4.69344 | -74.14216 | 8372 ft | 4 kts | 37° |
| 2026-04-24 13:14 | 4.69327 | -74.14233 | 8372 ft | 4 kts | 60° |
| 2026-04-24 13:15 | 4.69323 | -74.14256 | 8372 ft | 4 kts | 99° |
| 2026-04-24 13:15 | 4.69332 | -74.14281 | 8373 ft | 4 kts | 119° |
| 2026-04-24 13:15 | 4.69347 | -74.14303 | 8370 ft | 4 kts | 127° |
| 2026-04-24 13:15 | 4.69362 | -74.14322 | 8373 ft | 1 kts | 127° |
| 2026-04-24 13:16 | 4.69352 | -74.14309 | 8371 ft | 4 kts | 127° |
| 2026-04-24 13:16 | 4.69336 | -74.14288 | 8373 ft | 3 kts | 127° |
| 2026-04-24 13:16 | 4.69333 | -74.14284 | 8373 ft | 0 kts | 127° |
| 2026-04-24 13:18 | 4.69331 | -74.14282 | 8373 ft | 3 kts | 127° |
| 2026-04-24 13:18 | 4.69302 | -74.14243 | 8373 ft | 10 kts | 127° |
| 2026-04-24 13:18 | 4.69248 | -74.14173 | 8370 ft | 15 kts | 127° |
| 2026-04-24 13:19 | 4.69175 | -74.14094 | 8371 ft | 16 kts | 166° |
| 2026-04-24 13:19 | 4.69083 | -74.14131 | 8374 ft | 15 kts | 217° |
| 2026-04-24 13:19 | 4.69011 | -74.14195 | 8374 ft | 6 kts | 235° |
| 2026-04-24 13:19 | 4.69015 | -74.14221 | 8374 ft | 0 kts | 306° |
| 2026-04-24 13:20 | 4.69060 | -74.14282 | 8375 ft | 32 kts | 307° |
| 2026-04-24 13:20 | 4.69293 | -74.14590 | 8371 ft | 78 kts | 307° |
| 2026-04-24 13:20 | 4.69709 | -74.15139 | 8375 ft | 118 kts | 307° |
| 2026-04-24 13:21 | 4.70275 | -74.15885 | 8372 ft | 150 kts | 307° |
| 2026-04-24 13:21 | 4.70953 | -74.16783 | 8496 ft | 166 kts | 308° |
| 2026-04-24 13:21 | 4.71685 | -74.17727 | 8707 ft | 179 kts | 308° |
| 2026-04-24 13:21 | 4.72445 | -74.18751 | 9066 ft | 185 kts | 305° |
| 2026-04-24 13:22 | 4.73226 | -74.19776 | 9476 ft | 188 kts | 321° |
| 2026-04-24 13:22 | 4.74380 | -74.20463 | 9680 ft | 200 kts | 339° |
| 2026-04-24 13:22 | 4.75779 | -74.20742 | 9834 ft | 214 kts | 0° |
| 2026-04-24 13:22 | 4.77286 | -74.20459 | 9967 ft | 230 kts | 23° |
| 2026-04-24 13:23 | 4.78710 | -74.19566 | 10120 ft | 256 kts | 39° |
| 2026-04-24 13:23 | 4.80091 | -74.18279 | 10271 ft | 287 kts | 45° |
| 2026-04-24 13:23 | 4.81554 | -74.16847 | 10474 ft | 294 kts | 43° |
| 2026-04-24 13:23 | 4.83087 | -74.15470 | 10758 ft | 296 kts | 41° |
| 2026-04-24 13:24 | 4.84632 | -74.14115 | 11124 ft | 297 kts | 41° |
| 2026-04-24 13:24 | 4.86104 | -74.12790 | 11501 ft | 300 kts | 42° |
| 2026-04-24 13:24 | 4.87658 | -74.11380 | 11901 ft | 302 kts | 42° |
| 2026-04-24 13:24 | 4.89233 | -74.09965 | 12315 ft | 305 kts | 41° |
| 2026-04-24 13:25 | 4.90820 | -74.08543 | 12726 ft | 307 kts | 41° |
| 2026-04-24 13:25 | 4.92422 | -74.07103 | 13146 ft | 310 kts | 41° |
| 2026-04-24 13:25 | 4.94033 | -74.05655 | 13575 ft | 312 kts | 41° |
| 2026-04-24 13:25 | 4.95655 | -74.04196 | 14001 ft | 315 kts | 41° |
| 2026-04-24 13:26 | 4.97287 | -74.02729 | 14403 ft | 317 kts | 41° |
| 2026-04-24 13:26 | 4.98853 | -74.01320 | 14762 ft | 318 kts | 41° |
| 2026-04-24 13:26 | 5.00526 | -73.99816 | 15076 ft | 330 kts | 41° |
| 2026-04-24 13:26 | 5.02197 | -73.98136 | 15258 ft | 352 kts | 49° |
| 2026-04-24 13:27 | 5.03691 | -73.96075 | 15328 ft | 377 kts | 58° |
| 2026-04-24 13:27 | 5.04964 | -73.93904 | 15616 ft | 386 kts | 60° |
| 2026-04-24 13:27 | 5.06331 | -73.91543 | 15917 ft | 387 kts | 58° |
| 2026-04-24 13:27 | 5.07827 | -73.89286 | 16207 ft | 388 kts | 55° |
| 2026-04-24 13:28 | 5.09369 | -73.87049 | 16537 ft | 390 kts | 56° |
| 2026-04-24 13:28 | 5.10822 | -73.84794 | 16868 ft | 392 kts | 58° |
| 2026-04-24 13:28 | 5.12274 | -73.82466 | 17210 ft | 394 kts | 57° |
| 2026-04-24 13:28 | 5.13771 | -73.80149 | 17558 ft | 396 kts | 56° |
| 2026-04-24 13:29 | 5.15297 | -73.77837 | 17907 ft | 398 kts | 56° |
| 2026-04-24 13:29 | 5.16813 | -73.75502 | 18265 ft | 401 kts | 57° |
| 2026-04-24 13:29 | 5.18326 | -73.73139 | 18617 ft | 403 kts | 57° |
| 2026-04-24 13:29 | 5.19849 | -73.70777 | 18937 ft | 405 kts | 56° |
| 2026-04-24 13:30 | 5.21393 | -73.68403 | 19241 ft | 406 kts | 56° |
| 2026-04-24 13:30 | 5.22937 | -73.66022 | 19554 ft | 408 kts | 56° |
| 2026-04-24 13:30 | 5.24483 | -73.63626 | 19867 ft | 410 kts | 56° |
| 2026-04-24 13:30 | 5.26039 | -73.61218 | 20182 ft | 412 kts | 56° |
| 2026-04-24 13:31 | 5.27607 | -73.58800 | 20504 ft | 414 kts | 56° |
| 2026-04-24 13:31 | 5.29183 | -73.56368 | 20833 ft | 416 kts | 56° |
| 2026-04-24 13:31 | 5.30762 | -73.53926 | 21160 ft | 418 kts | 56° |
| 2026-04-24 13:31 | 5.32347 | -73.51473 | 21494 ft | 420 kts | 56° |
| 2026-04-24 13:32 | 5.33943 | -73.49009 | 21833 ft | 423 kts | 56° |
| 2026-04-24 13:32 | 5.35549 | -73.46528 | 22170 ft | 425 kts | 56° |
| 2026-04-24 13:32 | 5.37159 | -73.44039 | 22520 ft | 426 kts | 56° |
| 2026-04-24 13:32 | 5.38777 | -73.41537 | 22866 ft | 429 kts | 56° |
| 2026-04-24 13:33 | 5.40404 | -73.39020 | 23218 ft | 431 kts | 56° |
| 2026-04-24 13:33 | 5.42044 | -73.36485 | 23579 ft | 433 kts | 56° |
| 2026-04-24 13:33 | 5.43691 | -73.33939 | 23933 ft | 436 kts | 56° |
| 2026-04-24 13:33 | 5.45344 | -73.31381 | 24233 ft | 438 kts | 56° |
| 2026-04-24 13:34 | 5.46998 | -73.28821 | 24539 ft | 439 kts | 56° |
| 2026-04-24 13:34 | 5.48665 | -73.26243 | 24843 ft | 441 kts | 56° |
| 2026-04-24 13:34 | 5.50340 | -73.23652 | 25157 ft | 443 kts | 57° |
| 2026-04-24 13:34 | 5.52019 | -73.21054 | 25469 ft | 444 kts | 57° |
| 2026-04-24 13:35 | 5.53704 | -73.18446 | 25785 ft | 446 kts | 57° |
| 2026-04-24 13:35 | 5.55392 | -73.15833 | 26108 ft | 447 kts | 57° |
| 2026-04-24 13:35 | 5.57085 | -73.13212 | 26429 ft | 449 kts | 57° |
| 2026-04-24 13:35 | 5.58788 | -73.10576 | 26758 ft | 450 kts | 57° |
| 2026-04-24 13:36 | 5.60496 | -73.07930 | 26928 ft | 455 kts | 57° |
| 2026-04-24 13:36 | 5.62218 | -73.05264 | 26928 ft | 456 kts | 57° |
| 2026-04-24 13:36 | 5.63949 | -73.02583 | 26924 ft | 455 kts | 57° |
| 2026-04-24 13:36 | 5.65667 | -72.99921 | 26923 ft | 455 kts | 57° |
| 2026-04-24 13:37 | 5.67392 | -72.97247 | 26921 ft | 455 kts | 57° |
| 2026-04-24 13:37 | 5.69111 | -72.94579 | 26919 ft | 455 kts | 57° |
| 2026-04-24 13:37 | 5.70821 | -72.91907 | 26913 ft | 455 kts | 57° |
| 2026-04-24 13:37 | 5.72510 | -72.89265 | 26915 ft | 455 kts | 57° |
| 2026-04-24 13:38 | 5.74224 | -72.86592 | 26912 ft | 455 kts | 57° |
| 2026-04-24 13:38 | 5.75938 | -72.83926 | 26908 ft | 455 kts | 57° |
| 2026-04-24 13:38 | 5.77654 | -72.81247 | 26905 ft | 455 kts | 57° |
| 2026-04-24 13:38 | 5.79367 | -72.78570 | 26898 ft | 456 kts | 57° |
| 2026-04-24 13:39 | 5.81080 | -72.75896 | 26895 ft | 456 kts | 57° |
| 2026-04-24 13:39 | 5.82797 | -72.73219 | 26893 ft | 456 kts | 57° |
| 2026-04-24 13:39 | 5.84512 | -72.70542 | 26889 ft | 456 kts | 57° |
| 2026-04-24 13:39 | 5.86227 | -72.67862 | 26886 ft | 456 kts | 57° |
| 2026-04-24 13:40 | 5.87388 | -72.66048 | 26881 ft | 456 kts | 57° |
| 2026-04-24 13:40 | 5.89660 | -72.62502 | 26879 ft | 456 kts | 57° |
| 2026-04-24 13:40 | 5.90821 | -72.60689 | 26874 ft | 456 kts | 57° |
| 2026-04-24 13:40 | 5.92535 | -72.58010 | 26873 ft | 456 kts | 57° |
| 2026-04-24 13:41 | 5.94252 | -72.55328 | 26866 ft | 456 kts | 57° |
| 2026-04-24 13:41 | 5.95968 | -72.52647 | 26861 ft | 456 kts | 57° |
| 2026-04-24 13:41 | 5.97681 | -72.49970 | 26857 ft | 456 kts | 57° |
| 2026-04-24 13:41 | 5.99396 | -72.47289 | 26851 ft | 456 kts | 57° |
| 2026-04-24 13:42 | 6.01092 | -72.44638 | 26849 ft | 456 kts | 57° |
| 2026-04-24 13:42 | 6.02803 | -72.41962 | 26844 ft | 456 kts | 57° |
| 2026-04-24 13:42 | 6.04518 | -72.39282 | 26837 ft | 456 kts | 57° |
| 2026-04-24 13:42 | 6.06230 | -72.36605 | 26830 ft | 456 kts | 57° |
| 2026-04-24 13:43 | 6.07943 | -72.33924 | 26825 ft | 455 kts | 58° |
| 2026-04-24 13:43 | 6.09654 | -72.31248 | 26821 ft | 455 kts | 57° |
| 2026-04-24 13:43 | 6.11371 | -72.28563 | 26815 ft | 456 kts | 58° |
| 2026-04-24 13:43 | 6.13083 | -72.25883 | 26813 ft | 456 kts | 58° |
| 2026-04-24 13:44 | 6.14794 | -72.23205 | 26805 ft | 456 kts | 58° |
| 2026-04-24 13:44 | 6.16511 | -72.20519 | 26798 ft | 456 kts | 58° |
| 2026-04-24 13:44 | 6.18222 | -72.17840 | 26797 ft | 456 kts | 58° |
| 2026-04-24 13:44 | 6.19940 | -72.15150 | 26787 ft | 457 kts | 58° |
| 2026-04-24 13:45 | 6.21655 | -72.12465 | 26782 ft | 457 kts | 58° |
| 2026-04-24 13:45 | 6.23371 | -72.09778 | 26774 ft | 457 kts | 58° |
| 2026-04-24 13:45 | 6.25089 | -72.07086 | 26763 ft | 457 kts | 58° |
| 2026-04-24 13:45 | 6.26806 | -72.04397 | 26745 ft | 457 kts | 58° |
| 2026-04-24 13:46 | 6.28521 | -72.01710 | 26722 ft | 458 kts | 58° |
| 2026-04-24 13:46 | 6.30240 | -71.99015 | 26700 ft | 458 kts | 58° |
| 2026-04-24 13:46 | 6.31961 | -71.96318 | 26678 ft | 458 kts | 58° |
| 2026-04-24 13:46 | 6.33681 | -71.93622 | 26664 ft | 458 kts | 58° |
| 2026-04-24 13:47 | 6.35398 | -71.90931 | 26647 ft | 458 kts | 58° |
| 2026-04-24 13:47 | 6.37116 | -71.88237 | 26634 ft | 458 kts | 57° |
| 2026-04-24 13:47 | 6.38816 | -71.85572 | 26624 ft | 458 kts | 57° |
| 2026-04-24 13:47 | 6.40529 | -71.82884 | 26618 ft | 458 kts | 57° |
| 2026-04-24 13:48 | 6.42253 | -71.80181 | 26616 ft | 458 kts | 57° |
| 2026-04-24 13:48 | 6.43973 | -71.77483 | 26619 ft | 458 kts | 57° |
| 2026-04-24 13:48 | 6.45601 | -71.74729 | 26451 ft | 461 kts | 62° |
| 2026-04-24 13:48 | 6.46951 | -71.71823 | 25974 ft | 456 kts | 68° |
| 2026-04-24 13:49 | 6.48051 | -71.68853 | 25493 ft | 451 kts | 71° |
| 2026-04-24 13:49 | 6.49075 | -71.65882 | 25020 ft | 448 kts | 70° |
| 2026-04-24 13:49 | 6.50234 | -71.62985 | 24553 ft | 445 kts | 66° |
| 2026-04-24 13:49 | 6.51488 | -71.60148 | 24085 ft | 443 kts | 66° |
| 2026-04-24 13:50 | 6.52662 | -71.57299 | 23636 ft | 441 kts | 68° |
| 2026-04-24 13:50 | 6.53756 | -71.54430 | 23092 ft | 437 kts | 69° |
| 2026-04-24 13:50 | 6.54870 | -71.51602 | 22552 ft | 433 kts | 67° |
| 2026-04-24 13:50 | 6.56025 | -71.48822 | 22021 ft | 429 kts | 67° |
| 2026-04-24 13:51 | 6.57159 | -71.46063 | 21502 ft | 425 kts | 68° |
| 2026-04-24 13:51 | 6.58251 | -71.43313 | 20985 ft | 422 kts | 68° |
| 2026-04-24 13:51 | 6.59334 | -71.40585 | 20490 ft | 418 kts | 68° |
| 2026-04-24 13:51 | 6.60427 | -71.37891 | 19993 ft | 415 kts | 68° |
| 2026-04-24 13:52 | 6.61519 | -71.35208 | 19511 ft | 412 kts | 68° |
| 2026-04-24 13:52 | 6.62586 | -71.32552 | 19037 ft | 409 kts | 68° |
| 2026-04-24 13:52 | 6.63641 | -71.29915 | 18571 ft | 405 kts | 68° |
| 2026-04-24 13:52 | 6.64696 | -71.27293 | 18078 ft | 403 kts | 68° |
| 2026-04-24 13:53 | 6.65746 | -71.24701 | 17545 ft | 399 kts | 67° |
| 2026-04-24 13:53 | 6.66853 | -71.22151 | 17014 ft | 396 kts | 62° |
| 2026-04-24 13:53 | 6.68415 | -71.19882 | 16392 ft | 394 kts | 48° |
| 2026-04-24 13:53 | 6.70282 | -71.17880 | 15660 ft | 390 kts | 44° |
| 2026-04-24 13:54 | 6.72245 | -71.16128 | 14932 ft | 366 kts | 39° |
| 2026-04-24 13:54 | 6.74183 | -71.14571 | 14221 ft | 348 kts | 39° |
| 2026-04-24 13:54 | 6.75985 | -71.13010 | 13489 ft | 339 kts | 41° |
| 2026-04-24 13:54 | 6.77727 | -71.11388 | 12704 ft | 343 kts | 42° |
| 2026-04-24 13:55 | 6.79482 | -71.09797 | 11948 ft | 344 kts | 40° |
| 2026-04-24 13:55 | 6.81297 | -71.08215 | 11223 ft | 345 kts | 40° |
| 2026-04-24 13:55 | 6.83099 | -71.06631 | 10505 ft | 345 kts | 41° |
| 2026-04-24 13:55 | 6.84878 | -71.05035 | 9910 ft | 335 kts | 41° |
| 2026-04-24 13:56 | 6.86567 | -71.03522 | 9252 ft | 316 kts | 41° |
| 2026-04-24 13:56 | 6.88175 | -71.02096 | 8604 ft | 301 kts | 41° |
| 2026-04-24 13:56 | 6.89716 | -71.00730 | 8031 ft | 290 kts | 41° |
| 2026-04-24 13:56 | 6.91233 | -70.99379 | 7478 ft | 293 kts | 41° |
| 2026-04-24 13:57 | 6.92666 | -70.98100 | 6975 ft | 289 kts | 41° |
| 2026-04-24 13:57 | 6.94162 | -70.96771 | 6438 ft | 285 kts | 41° |
| 2026-04-24 13:57 | 6.95638 | -70.95459 | 5920 ft | 280 kts | 41° |
| 2026-04-24 13:57 | 6.97136 | -70.94225 | 5445 ft | 279 kts | 32° |
| 2026-04-24 13:58 | 6.98923 | -70.93477 | 4989 ft | 279 kts | 15° |
| 2026-04-24 13:58 | 7.00834 | -70.93122 | 4536 ft | 279 kts | 7° |
| 2026-04-24 13:58 | 7.02770 | -70.92938 | 4098 ft | 279 kts | 6° |
| 2026-04-24 13:58 | 7.04662 | -70.92568 | 3683 ft | 277 kts | 21° |
| 2026-04-24 13:59 | 7.06292 | -70.91634 | 3290 ft | 262 kts | 39° |
| 2026-04-24 13:59 | 7.07499 | -70.90342 | 2900 ft | 248 kts | 56° |
| 2026-04-24 13:59 | 7.08259 | -70.88834 | 2501 ft | 236 kts | 72° |
| 2026-04-24 13:59 | 7.08569 | -70.87229 | 2203 ft | 230 kts | 87° |
| 2026-04-24 14:00 | 7.08501 | -70.85687 | 2203 ft | 212 kts | 96° |
| 2026-04-24 14:00 | 7.08298 | -70.84246 | 2176 ft | 207 kts | 98° |
| 2026-04-24 14:00 | 7.08093 | -70.82840 | 2062 ft | 193 kts | 97° |
| 2026-04-24 14:00 | 7.07927 | -70.81580 | 1942 ft | 170 kts | 96° |
| 2026-04-24 14:01 | 7.07782 | -70.80478 | 1792 ft | 150 kts | 96° |
| 2026-04-24 14:01 | 7.07652 | -70.79470 | 1643 ft | 144 kts | 96° |
| 2026-04-24 14:01 | 7.07522 | -70.78478 | 1525 ft | 142 kts | 96° |
| 2026-04-24 14:01 | 7.07392 | -70.77482 | 1422 ft | 141 kts | 96° |
| 2026-04-24 14:02 | 7.07271 | -70.76468 | 1048 ft | 148 kts | 97° |
| 2026-04-24 14:02 | 7.07127 | -70.75456 | 719 ft | 145 kts | 99° |
| 2026-04-24 14:02 | 7.06992 | -70.74461 | 449 ft | 140 kts | 98° |
| 2026-04-24 14:02 | 7.06880 | -70.73611 | 429 ft | 98 kts | 98° |
| 2026-04-24 14:03 | 7.06819 | -70.73159 | 420 ft | 39 kts | 97° |
| 2026-04-24 14:03 | 7.06796 | -70.72987 | 420 ft | 19 kts | 98° |
| 2026-04-24 14:03 | 7.06778 | -70.72854 | 422 ft | 17 kts | 93° |
| 2026-04-24 14:03 | 7.06776 | -70.72782 | 421 ft | 3 kts | 158° |
| 2026-04-24 14:04 | 7.06765 | -70.72784 | 424 ft | 1 kts | 217° |
| 2026-04-24 14:04 | 7.06760 | -70.72795 | 424 ft | 3 kts | 273° |
| 2026-04-24 14:04 | 7.06772 | -70.72852 | 422 ft | 14 kts | 280° |
| 2026-04-24 14:04 | 7.06796 | -70.72988 | 420 ft | 25 kts | 281° |
| 2026-04-24 14:05 | 7.06821 | -70.73169 | 418 ft | 27 kts | 277° |
| 2026-04-24 14:05 | 7.06843 | -70.73342 | 432 ft | 19 kts | 277° |
| 2026-04-24 14:05 | 7.06819 | -70.73427 | 427 ft | 11 kts | 237° |
| 2026-04-24 14:05 | 7.06764 | -70.73494 | 420 ft | 10 kts | 230° |
| 2026-04-24 14:06 | 7.06731 | -70.73539 | 426 ft | 7 kts | 224° |
| 2026-04-24 14:06 | 7.06714 | -70.73547 | 429 ft | 0 kts | 186° |
| 2026-04-24 14:06 | 7.06711 | -70.73548 | 429 ft | 0 kts | 186° |